Time;durP1;ratioP1;P1;durP2;ratioP2;P2;SDS_P1;SDS_P2;PMS_P1;PMS_P2;Temp;Humidity;BMP_temperature;BMP_pressure;BME280_temperature;BME280_humidity;BME280_pressure;Samples;Min_cycle;Max_cycle;Signal;HPM_P1;HPM_P2
2021/12/13 00:01:37;;;;;;;39.80;19.90;;;;;;;;;;5076681;27;92215;-72
2021/12/13 00:04:04;;;;;;;38.75;20.30;;;;;;;;;;5078332;27;93888;-72
2021/12/13 00:06:33;;;;;;;33.13;19.95;;;;;;;;;;5079852;27;93714;-72
2021/12/13 00:09:01;;;;;;;37.90;19.33;;;;;;;;;;5080339;27;91591;-72
2021/12/13 00:11:29;;;;;;;33.38;20.25;;;;;;;;;;5080215;27;92680;-72
2021/12/13 00:14:07;;;;;;;34.17;19.42;;;;;;;;;;5079712;27;93653;-72
2021/12/13 00:16:36;;;;;;;30.13;17.70;;;;;;;;;;5081719;27;94707;-72
2021/12/13 00:19:06;;;;;;;33.63;19.00;;;;;;;;;;5079782;27;93179;-73
2021/12/13 00:21:36;;;;;;;39.00;19.10;;;;;;;;;;5080126;27;92223;-72
2021/12/13 00:24:08;;;;;;;41.85;20.55;;;;;;;;;;5079896;27;93425;-72
2021/12/13 00:26:36;;;;;;;;;;;;;;;;;;5079885;27;95958;-72
2021/12/13 00:29:17;;;;;;;32.72;17.42;;;;;;;;;;5080733;27;92200;-72
2021/12/13 00:31:48;;;;;;;40.28;19.23;;;;;;;;;;5079330;27;94126;-72
2021/12/13 00:34:14;;;;;;;39.03;20.03;;;;;;;;;;5080506;27;93041;-72
2021/12/13 00:36:50;;;;;;;29.52;17.40;;;;;;;;;;5082891;27;92200;-72
2021/12/13 00:39:19;;;;;;;37.47;19.75;;;;;;;;;;5079777;27;93960;-72
2021/12/13 00:41:47;;;;;;;38.03;18.85;;;;;;;;;;5077887;27;94803;-72
2021/12/13 00:44:16;;;;;;;34.50;18.40;;;;;;;;;;5079327;27;95935;-72
2021/12/13 00:46:43;;;;;;;38.28;17.80;;;;;;;;;;5079568;27;93618;-72
2021/12/13 00:49:12;;;;;;;35.95;17.33;;;;;;;;;;5079594;27;92243;-72
2021/12/13 00:51:43;;;;;;;30.05;17.35;;;;;;;;;;5079551;27;93440;-72
2021/12/13 00:54:17;;;;;;;28.15;16.23;;;;;;;;;;5079513;27;93559;-72
2021/12/13 00:56:43;;;;;;;34.90;16.58;;;;;;;;;;5079183;27;93052;-73
2021/12/13 00:59:12;;;;;;;32.45;17.10;;;;;;;;;;5083043;27;93323;-72
2021/12/13 01:01:39;;;;;;;31.58;17.77;;;;;;;;;;5079498;27;92243;-72
2021/12/13 01:04:08;;;;;;;26.13;16.08;;;;;;;;;;5079412;27;93892;-73
2021/12/13 01:06:53;;;;;;;42.88;17.52;;;;;;;;;;5077472;27;96217;-72
2021/12/13 01:09:39;;;;;;;32.90;17.05;;;;;;;;;;5078282;27;92327;-72
2021/12/13 01:12:07;;;;;;;36.67;16.65;;;;;;;;;;5079324;27;93410;-72
2021/12/13 01:14:41;;;;;;;35.58;16.05;;;;;;;;;;5078625;27;93465;-72
2021/12/13 01:17:17;;;;;;;30.90;15.75;;;;;;;;;;5079068;27;92300;-72
2021/12/13 01:19:52;;;;;;;25.88;15.65;;;;;;;;;;5078705;27;93491;-72
2021/12/13 01:22:57;;;;;;;27.58;14.63;;;;;;;;;;5064284;27;93173;-72
2021/12/13 01:25:47;;;;;;;22.27;13.80;;;;;;;;;;5079470;27;93400;-72
2021/12/13 01:28:18;;;;;;;23.15;13.85;;;;;;;;;;5078516;27;93808;-72
2021/12/13 01:30:48;;;;;;;30.30;14.25;;;;;;;;;;5078892;27;92320;-72
2021/12/13 01:33:15;;;;;;;27.70;14.60;;;;;;;;;;5077393;27;94758;-72
2021/12/13 01:35:48;;;;;;;26.83;13.02;;;;;;;;;;5078721;27;93543;-72
2021/12/13 01:38:32;;;;;;;30.70;13.82;;;;;;;;;;5078636;27;92368;-73
2021/12/13 01:40:59;;;;;;;26.17;13.43;;;;;;;;;;5078709;27;93855;-72
2021/12/13 01:43:28;;;;;;;27.70;14.55;;;;;;;;;;5078575;27;93716;-72
2021/12/13 01:45:55;;;;;;;25.35;13.73;;;;;;;;;;5081902;27;92393;-72
2021/12/13 01:48:25;;;;;;;31.48;15.30;;;;;;;;;;5078918;27;92811;-72
2021/12/13 01:50:53;;;;;;;22.20;14.02;;;;;;;;;;5079207;27;91561;-72
2021/12/13 01:53:29;;;;;;;24.23;13.35;;;;;;;;;;5078974;27;92828;-72
2021/12/13 01:55:58;;;;;;;27.13;12.70;;;;;;;;;;5078670;27;93575;-72
2021/12/13 02:01:09;;;;;;;21.23;12.48;;;;;;;;;;5071781;27;95789;-72
2021/12/13 02:03:36;;;;;;;;;;;;;;;;;;5058239;27;92652;-72
2021/12/13 02:06:02;;;;;;;22.08;10.48;;;;;;;;;;5057593;27;117717;-72
2021/12/13 02:08:29;;;;;;;19.35;12.18;;;;;;;;;;5060924;27;93736;-72
2021/12/13 02:10:56;;;;;;;18.42;11.50;;;;;;;;;;5057625;27;93226;-72
2021/12/13 02:13:25;;;;;;;20.02;10.88;;;;;;;;;;5057889;27;93501;-72
2021/12/13 02:18:40;;;;;;;19.17;10.57;;;;;;;;;;5057788;27;92223;-73
2021/12/13 02:21:18;;;;;;;17.17;11.32;;;;;;;;;;5057266;27;94225;-72
2021/12/13 02:23:47;;;;;;;21.05;12.50;;;;;;;;;;5055856;27;95883;-72
2021/12/13 02:26:13;;;;;;;25.83;12.35;;;;;;;;;;5056816;27;92107;-73
2021/12/13 02:28:41;;;;;;;22.25;12.95;;;;;;;;;;5056687;27;92801;-72
2021/12/13 02:31:11;;;;;;;26.00;13.48;;;;;;;;;;5060533;27;94130;-72
2021/12/13 02:33:39;;;;;;;24.40;13.90;;;;;;;;;;5057470;27;93548;-72
2021/12/13 02:36:11;;;;;;;23.42;13.50;;;;;;;;;;5057330;27;92988;-73
2021/12/13 02:38:40;;;;;;;21.52;13.35;;;;;;;;;;5057353;27;92388;-72
2021/12/13 02:41:07;;;;;;;22.73;13.70;;;;;;;;;;5057437;27;93222;-72
2021/12/13 02:43:37;;;;;;;21.83;14.90;;;;;;;;;;5057149;27;93643;-72
2021/12/13 02:46:04;;;;;;;28.13;15.98;;;;;;;;;;5057104;27;92293;-72
2021/12/13 02:48:30;;;;;;;25.50;16.00;;;;;;;;;;5055883;27;94559;-72
2021/12/13 02:51:06;;;;;;;31.30;16.75;;;;;;;;;;5060242;27;93626;-73
2021/12/13 02:53:47;;;;;;;31.10;17.77;;;;;;;;;;5056652;27;93589;-73
2021/12/13 02:56:15;;;;;;;36.90;17.33;;;;;;;;;;5056839;27;93963;-72
2021/12/13 02:58:42;;;;;;;37.80;17.50;;;;;;;;;;5057210;27;92310;-73
2021/12/13 03:01:14;;;;;;;29.27;17.92;;;;;;;;;;5056904;27;92435;-72
2021/12/13 03:03:44;;;;;;;33.10;19.38;;;;;;;;;;5056966;27;93364;-72
2021/12/13 03:06:12;;;;;;;34.33;19.15;;;;;;;;;;5056927;27;91633;-73
2021/12/13 03:08:47;;;;;;;34.38;19.88;;;;;;;;;;5056629;27;92117;-73
2021/12/13 03:11:22;;;;;;;37.38;20.05;;;;;;;;;;5056771;27;93127;-72
2021/12/13 03:13:54;;;;;;;36.65;20.35;;;;;;;;;;5058515;27;94664;-73
2021/12/13 03:16:22;;;;;;;39.30;21.38;;;;;;;;;;5056339;27;93476;-73
2021/12/13 03:18:54;;;;;;;34.15;21.15;;;;;;;;;;5056946;27;92368;-73
2021/12/13 03:21:39;;;;;;;35.13;21.48;;;;;;;;;;5056733;27;93954;-73
2021/12/13 03:24:19;;;;;;;38.33;21.38;;;;;;;;;;5056605;27;93627;-73
2021/12/13 03:26:54;;;;;;;38.95;23.02;;;;;;;;;;5056587;27;92340;-73
2021/12/13 03:29:27;;;;;;;43.45;24.10;;;;;;;;;;5056658;27;93866;-73
2021/12/13 03:31:56;;;;;;;42.90;25.45;;;;;;;;;;5056987;27;92963;-72
2021/12/13 03:34:35;;;;;;;42.47;25.98;;;;;;;;;;5056734;27;92400;-73
2021/12/13 03:37:20;;;;;;;48.13;26.95;;;;;;;;;;5059493;27;93725;-72
2021/12/13 03:39:49;;;;;;;42.85;25.50;;;;;;;;;;5058093;27;94535;-72
2021/12/13 03:42:18;;;;;;;44.10;26.67;;;;;;;;;;5060109;27;95808;-72
2021/12/13 03:44:47;;;;;;;49.33;28.27;;;;;;;;;;5059740;27;93679;-73
2021/12/13 03:47:15;;;;;;;44.50;26.92;;;;;;;;;;5060111;27;92324;-73
2021/12/13 03:49:44;;;;;;;42.80;27.20;;;;;;;;;;5060023;27;93266;-73
2021/12/13 03:52:12;;;;;;;47.40;27.55;;;;;;;;;;5059583;27;93898;-72
2021/12/13 03:54:39;;;;;;;37.88;26.73;;;;;;;;;;5060056;27;92323;-73
2021/12/13 03:57:07;;;;;;;40.88;26.83;;;;;;;;;;5060507;27;93730;-72
2021/12/13 03:59:37;;;;;;;40.30;26.42;;;;;;;;;;5062881;27;93714;-72
2021/12/13 04:02:05;;;;;;;45.90;26.90;;;;;;;;;;5059850;27;92805;-73
2021/12/13 04:04:34;;;;;;;42.03;26.70;;;;;;;;;;5057472;27;96057;-73
2021/12/13 04:07:12;;;;;;;41.22;25.70;;;;;;;;;;5059795;27;92287;-73
2021/12/13 04:09:38;;;;;;;41.90;26.33;;;;;;;;;;5059407;27;93686;-72
2021/12/13 04:12:06;;;;;;;38.10;25.45;;;;;;;;;;5059475;27;94024;-72
2021/12/13 04:14:37;;;;;;;36.92;25.60;;;;;;;;;;5059747;27;92371;-73
2021/12/13 04:17:21;;;;;;;46.35;26.58;;;;;;;;;;5059221;27;93538;-73
2021/12/13 04:19:52;;;;;;;39.28;24.83;;;;;;;;;;5059523;27;93584;-73
2021/12/13 04:22:20;;;;;;;33.58;23.85;;;;;;;;;;5063209;27;91603;-73
2021/12/13 04:24:53;;;;;;;35.97;24.08;;;;;;;;;;5059388;27;93671;-73
2021/12/13 04:27:31;;;;;;;34.65;23.30;;;;;;;;;;5059203;27;92350;-73
2021/12/13 04:29:59;;;;;;;32.88;23.60;;;;;;;;;;5057608;27;94655;-72
2021/12/13 04:32:34;;;;;;;34.10;22.88;;;;;;;;;;5059259;27;93536;-72
2021/12/13 04:35:04;;;;;;;31.33;22.05;;;;;;;;;;5041659;27;92237;-72
2021/12/13 04:37:51;;;;;;;34.30;22.65;;;;;;;;;;5059455;27;93458;-72
2021/12/13 04:40:24;;;;;;;27.88;20.55;;;;;;;;;;5059061;27;93449;-72
2021/12/13 04:42:55;;;;;;;34.65;21.58;;;;;;;;;;5059205;27;92125;-72
2021/12/13 04:45:23;;;;;;;31.33;21.67;;;;;;;;;;5062041;27;92974;-72
2021/12/13 04:48:01;;;;;;;32.30;22.15;;;;;;;;;;5042096;27;91646;-72
2021/12/13 04:50:36;;;;;;;26.40;20.20;;;;;;;;;;5057731;27;92992;-72
2021/12/13 04:53:03;;;;;;;25.17;19.83;;;;;;;;;;5058909;27;92663;-72
2021/12/13 04:55:31;;;;;;;30.80;20.95;;;;;;;;;;5057452;27;94670;-72
2021/12/13 04:57:59;;;;;;;33.78;21.95;;;;;;;;;;5058727;27;94931;-72
2021/12/13 05:00:27;;;;;;;36.10;21.40;;;;;;;;;;5058893;27;93547;-72
2021/12/13 05:02:59;;;;;;;31.35;21.73;;;;;;;;;;5058479;27;92223;-72
2021/12/13 05:05:27;;;;;;;28.75;20.92;;;;;;;;;;5062101;27;93122;-72
2021/12/13 05:07:53;;;;;;;31.83;21.48;;;;;;;;;;5058775;27;92253;-72
2021/12/13 05:10:24;;;;;;;33.80;21.35;;;;;;;;;;5058280;27;93537;-72
2021/12/13 05:12:58;;;;;;;38.10;21.90;;;;;;;;;;5059151;27;93201;-72
2021/12/13 05:15:25;;;;;;;29.23;21.50;;;;;;;;;;5058271;27;92253;-72
2021/12/13 05:17:52;;;;;;;31.67;22.35;;;;;;;;;;5058672;27;93527;-72
2021/12/13 05:20:21;;;;;;;33.58;21.75;;;;;;;;;;5056953;27;95991;-71
2021/12/13 05:22:55;;;;;;;30.00;21.75;;;;;;;;;;5058650;27;92288;-72
2021/12/13 05:25:26;;;;;;;28.83;22.52;;;;;;;;;;5058534;27;93486;-72
2021/12/13 05:28:07;;;;;;;30.27;21.57;;;;;;;;;;5061317;27;93554;-72
2021/12/13 05:30:34;;;;;;;30.23;21.98;;;;;;;;;;5058585;27;93292;-74
2021/12/13 05:33:13;;;;;;;28.45;21.17;;;;;;;;;;5038208;27;96652;-75
2021/12/13 05:35:43;;;;;;;29.02;22.15;;;;;;;;;;5058532;27;92522;-72
2021/12/13 05:38:21;;;;;;;29.83;22.25;;;;;;;;;;5040864;27;95150;-75
2021/12/13 05:40:47;;;;;;;33.63;22.30;;;;;;;;;;5058446;27;93626;-72
2021/12/13 05:43:22;;;;;;;27.48;20.65;;;;;;;;;;5058247;27;92403;-72
2021/12/13 05:46:03;;;;;;;26.13;20.67;;;;;;;;;;5056609;27;95098;-73
2021/12/13 05:48:41;;;;;;;29.77;21.15;;;;;;;;;;5058209;27;93587;-72
2021/12/13 05:51:29;;;;;;;26.92;20.45;;;;;;;;;;5061421;27;92309;-72
2021/12/13 05:53:59;;;;;;;29.52;20.42;;;;;;;;;;5057944;27;93940;-72
2021/12/13 05:56:27;;;;;;;30.50;21.27;;;;;;;;;;5058075;27;92334;-72
2021/12/13 05:59:08;;;;;;;29.65;21.35;;;;;;;;;;5058203;27;93402;-72
2021/12/13 06:01:53;;;;;;;30.42;20.90;;;;;;;;;;5057804;27;93638;-72
2021/12/13 06:04:38;;;;;;;29.92;20.80;;;;;;;;;;5058275;27;91496;-72
2021/12/13 06:07:33;;;;;;;28.50;19.98;;;;;;;;;;5057816;27;92329;-73
2021/12/13 06:10:14;;;;;;;29.40;19.85;;;;;;;;;;5022149;27;93797;-73
2021/12/13 06:12:57;;;;;;;25.08;19.98;;;;;;;;;;5056462;27;95707;-73
2021/12/13 06:15:27;;;;;;;30.52;20.85;;;;;;;;;;5060734;27;95753;-72
2021/12/13 06:18:07;;;;;;;32.60;20.23;;;;;;;;;;5038858;27;92368;-72
2021/12/13 06:20:53;;;;;;;33.55;21.15;;;;;;;;;;5057846;27;93430;-76
2021/12/13 06:23:22;;;;;;;30.35;21.08;;;;;;;;;;5057447;27;93652;-74
2021/12/13 06:25:54;;;;;;;32.22;21.70;;;;;;;;;;5057641;27;92272;-73
2021/12/13 06:28:27;;;;;;;31.38;21.27;;;;;;;;;;5057183;27;92933;-74
2021/12/13 06:30:56;;;;;;;26.48;20.67;;;;;;;;;;5058040;27;92764;-73
2021/12/13 06:33:22;;;;;;;31.77;22.13;;;;;;;;;;5057492;27;92269;-73
2021/12/13 06:35:50;;;;;;;33.55;21.63;;;;;;;;;;5057537;27;93358;-73
2021/12/13 06:38:19;;;;;;;34.38;21.85;;;;;;;;;;5058842;27;96036;-74
2021/12/13 06:40:47;;;;;;;36.75;21.70;;;;;;;;;;5056906;27;96148;-74
2021/12/13 06:43:24;;;;;;;30.50;21.35;;;;;;;;;;5057286;27;93540;-74
2021/12/13 06:45:51;;;;;;;34.17;21.67;;;;;;;;;;5057417;27;92342;-74
2021/12/13 06:48:17;;;;;;;32.15;20.75;;;;;;;;;;5057239;27;93784;-74
2021/12/13 06:50:46;;;;;;;32.30;21.25;;;;;;;;;;5057099;27;93659;-74
2021/12/13 06:53:19;;;;;;;39.92;21.60;;;;;;;;;;5056917;27;92387;-73
2021/12/13 06:55:46;;;;;;;32.45;21.88;;;;;;;;;;5021464;27;93019;-73
2021/12/13 06:58:17;;;;;;;34.10;21.70;;;;;;;;;;5057029;27;93008;-73
2021/12/13 07:00:44;;;;;;;;;;;;;;;;;;5060353;27;92342;-73
2021/12/13 07:03:15;;;;;;;36.42;22.50;;;;;;;;;;5055002;27;124760;-74
2021/12/13 07:05:46;;;;;;;36.53;22.55;;;;;;;;;;5038697;27;92471;-75
2021/12/13 07:08:24;;;;;;;37.60;22.30;;;;;;;;;;5038949;27;93554;-78
2021/12/13 07:10:53;;;;;;;34.28;21.58;;;;;;;;;;5056445;27;93473;-76
2021/12/13 07:13:19;;;;;;;32.85;21.23;;;;;;;;;;5056299;27;92339;-75
2021/12/13 07:15:48;;;;;;;30.60;20.77;;;;;;;;;;5056885;27;93955;-73
2021/12/13 07:18:16;;;;;;;34.72;20.60;;;;;;;;;;5056853;27;94128;-73
2021/12/13 07:20:52;;;;;;;32.00;20.85;;;;;;;;;;5060236;27;91642;-71
2021/12/13 07:23:18;;;;;;;38.92;20.88;;;;;;;;;;5056761;27;93628;-71
2021/12/13 07:25:46;;;;;;;34.13;19.85;;;;;;;;;;5056620;27;92336;-72
2021/12/13 07:28:25;;;;;;;34.75;21.95;;;;;;;;;;5055055;27;94750;-73
2021/12/13 07:30:53;;;;;;;32.95;20.92;;;;;;;;;;5056392;27;93080;-73
2021/12/13 07:33:31;;;;;;;34.75;21.30;;;;;;;;;;5056602;27;92329;-74
2021/12/13 07:35:58;;;;;;;36.00;21.83;;;;;;;;;;5038883;27;93424;-73
2021/12/13 07:38:28;;;;;;;36.85;21.40;;;;;;;;;;5056397;27;93827;-73
2021/12/13 07:40:56;;;;;;;41.35;22.02;;;;;;;;;;5038691;27;92246;-72
2021/12/13 07:43:28;;;;;;;34.28;21.63;;;;;;;;;;5059316;27;93579;-73
2021/12/13 07:46:07;;;;;;;38.58;22.80;;;;;;;;;;5056887;27;91585;-74
2021/12/13 07:48:51;;;;;;;33.78;21.98;;;;;;;;;;5056427;27;92975;-74
2021/12/13 07:51:29;;;;;;;38.00;22.67;;;;;;;;;;5056180;27;93754;-74
2021/12/13 07:53:58;;;;;;;39.45;23.63;;;;;;;;;;5054279;27;94654;-73
2021/12/13 07:56:27;;;;;;;38.33;22.08;;;;;;;;;;5056201;27;95797;-73
2021/12/13 07:59:02;;;;;;;40.58;23.77;;;;;;;;;;5056014;27;93202;-74
2021/12/13 08:01:31;;;;;;;39.97;23.98;;;;;;;;;;5038211;27;93503;-73
2021/12/13 08:03:59;;;;;;;43.85;23.95;;;;;;;;;;5056306;27;93278;-73
2021/12/13 08:06:32;;;;;;;45.30;25.33;;;;;;;;;;5058722;27;93694;-73
2021/12/13 08:09:00;;;;;;;40.53;24.40;;;;;;;;;;5055847;27;92566;-73
2021/12/13 08:11:54;;;;;;;43.08;23.73;;;;;;;;;;5056560;27;93000;-72
2021/12/13 08:14:32;;;;;;;41.83;24.20;;;;;;;;;;5052205;27;92392;-73
2021/12/13 08:17:16;;;;;;;49.47;23.83;;;;;;;;;;5055712;27;93701;-74
2021/12/13 08:19:43;;;;;;;42.53;23.92;;;;;;;;;;5054279;27;95977;-74
2021/12/13 08:22:16;;;;;;;37.55;23.70;;;;;;;;;;5055811;27;92365;-74
2021/12/13 08:24:45;;;;;;;46.15;25.48;;;;;;;;;;5057453;27;93576;-76
2021/12/13 08:27:16;;;;;;;38.92;23.05;;;;;;;;;;5058932;27;92878;-76
2021/12/13 08:29:44;;;;;;;;;;;;;;;;;;5062698;27;92199;-73
2021/12/13 08:32:16;;;;;;;36.53;22.35;;;;;;;;;;5059146;27;121749;-74
2021/12/13 08:34:42;;;;;;;;;;;;;;;;;;5059735;27;92358;-72
2021/12/13 08:37:14;;;;;;;42.20;23.05;;;;;;;;;;5059549;27;122300;-75
2021/12/13 08:39:41;;;;;;;40.03;22.60;;;;;;;;;;5058740;27;93605;-75
2021/12/13 08:42:11;;;;;;;42.20;23.02;;;;;;;;;;5058715;27;92335;-74
2021/12/13 08:44:41;;;;;;;39.08;23.55;;;;;;;;;;5057655;27;94791;-73
2021/12/13 08:47:16;;;;;;;43.10;22.73;;;;;;;;;;5058967;27;93014;-76
2021/12/13 08:49:54;;;;;;;41.33;22.65;;;;;;;;;;5059131;27;92134;-76
2021/12/13 08:52:26;;;;;;;37.40;22.23;;;;;;;;;;5061650;27;93438;-72
2021/12/13 08:55:16;;;;;;;36.58;22.13;;;;;;;;;;5059024;27;92155;-72
2021/12/13 08:57:48;;;;;;;35.92;22.27;;;;;;;;;;5058815;27;93581;-72
2021/12/13 09:00:21;;;;;;;35.47;22.27;;;;;;;;;;5058814;27;93650;-72
2021/12/13 09:02:55;;;;;;;40.35;22.13;;;;;;;;;;5059173;27;92637;-71
2021/12/13 09:05:27;;;;;;;37.72;21.35;;;;;;;;;;5064101;27;93655;-71
2021/12/13 09:07:59;;;;;;;39.22;22.13;;;;;;;;;;5079066;27;93470;-71
2021/12/13 09:10:46;;;;;;;39.30;22.08;;;;;;;;;;5079291;27;94715;-71
2021/12/13 09:13:15;;;;;;;38.13;19.98;;;;;;;;;;5101426;27;99141;-72
2021/12/13 09:15:42;;;;;;;42.33;22.15;;;;;;;;;;5099682;27;92205;-72
2021/12/13 09:18:16;;;;;;;37.72;21.83;;;;;;;;;;5099446;27;94103;-72
2021/12/13 09:20:46;;;;;;;45.78;21.25;;;;;;;;;;5099628;27;93567;-72
2021/12/13 09:23:14;;;;;;;34.00;20.60;;;;;;;;;;5099809;27;92300;-71
2021/12/13 09:25:45;;;;;;;34.33;19.80;;;;;;;;;;5099395;27;93516;-71
2021/12/13 09:28:17;;;;;;;36.38;20.67;;;;;;;;;;5099861;27;92937;-70
2021/12/13 09:30:43;;;;;;;;;;;;;;;;;;5099994;27;92238;-71
2021/12/13 09:33:13;;;;;;;35.53;18.95;;;;;;;;;;5099715;27;121368;-70
2021/12/13 09:35:41;;;;;;;31.42;19.40;;;;;;;;;;5100718;27;95646;-71
2021/12/13 09:38:17;;;;;;;35.88;19.23;;;;;;;;;;5080205;27;96588;-72
2021/12/13 09:40:44;;;;;;;36.28;20.05;;;;;;;;;;5099535;27;93665;-71
2021/12/13 09:43:10;;;;;;;33.60;20.63;;;;;;;;;;5099349;27;92296;-71
2021/12/13 09:45:39;;;;;;;36.08;20.98;;;;;;;;;;5099261;27;92359;-72
2021/12/13 09:48:26;;;;;;;33.13;19.98;;;;;;;;;;5099177;27;92357;-72
2021/12/13 09:50:55;;;;;;;32.53;19.15;;;;;;;;;;5098545;27;92589;-72
2021/12/13 09:53:24;;;;;;;31.73;19.17;;;;;;;;;;5099713;27;93349;-70
2021/12/13 09:55:52;;;;;;;34.95;18.98;;;;;;;;;;5098930;27;93541;-72
2021/12/13 09:58:20;;;;;;;33.22;19.60;;;;;;;;;;5084301;27;92579;-72
2021/12/13 10:01:07;;;;;;;33.80;20.23;;;;;;;;;;5097003;27;95464;-73
2021/12/13 10:03:43;;;;;;;35.58;19.58;;;;;;;;;;5098731;27;92332;-72
2021/12/13 10:06:12;;;;;;;30.80;18.23;;;;;;;;;;5098778;27;93516;-74
2021/12/13 10:08:43;;;;;;;33.45;19.65;;;;;;;;;;5098126;27;93867;-72
2021/12/13 10:11:15;;;;;;;30.50;18.60;;;;;;;;;;5098570;27;92477;-74
2021/12/13 10:13:42;;;;;;;;;;;;;;;;;;5098666;27;93053;-70
2021/12/13 10:16:17;;;;;;;31.48;18.52;;;;;;;;;;5098549;27;120573;-72
2021/12/13 10:18:44;;;;;;;27.02;17.98;;;;;;;;;;5099338;27;91423;-73
2021/12/13 10:21:25;;;;;;;28.10;17.20;;;;;;;;;;5101699;27;92533;-72
2021/12/13 10:23:53;;;;;;;27.02;17.17;;;;;;;;;;5098542;27;92295;-73
2021/12/13 10:26:25;;;;;;;;;;;;;;;;;;5097061;27;94815;-73
2021/12/13 10:28:58;;;;;;;25.15;16.50;;;;;;;;;;5098135;27;122059;-72
2021/12/13 10:31:27;;;;;;;24.60;17.10;;;;;;;;;;5098409;27;92241;-72
2021/12/13 10:33:54;;;;;;;29.17;17.85;;;;;;;;;;5098534;27;93133;-72
2021/12/13 10:36:21;;;;;;;24.50;16.70;;;;;;;;;;5098351;27;93532;-72
2021/12/13 10:38:49;;;;;;;23.38;16.75;;;;;;;;;;5076261;27;92984;-72
2021/12/13 10:41:25;;;;;;;26.33;17.58;;;;;;;;;;5066294;27;93187;-72
2021/12/13 10:43:53;;;;;;;24.75;16.30;;;;;;;;;;5069970;27;92949;-71
2021/12/13 10:46:23;;;;;;;25.88;16.05;;;;;;;;;;5065996;27;92637;-72
2021/12/13 10:48:53;;;;;;;27.25;16.02;;;;;;;;;;5065217;27;93742;-73
2021/12/13 10:51:23;;;;;;;24.92;16.02;;;;;;;;;;5065844;27;95573;-73
2021/12/13 10:53:50;;;;;;;23.42;15.80;;;;;;;;;;5067418;27;94094;-73
2021/12/13 10:56:20;;;;;;;26.10;16.77;;;;;;;;;;5065899;27;93343;-73
2021/12/13 10:58:48;;;;;;;26.13;16.13;;;;;;;;;;5050714;27;92453;-73
2021/12/13 11:01:20;;;;;;;22.92;15.38;;;;;;;;;;5077602;27;93369;-73
2021/12/13 11:03:47;;;;;;;26.23;15.90;;;;;;;;;;5058697;27;93720;-74
2021/12/13 11:06:14;;;;;;;23.83;15.98;;;;;;;;;;5080700;27;92432;-74
2021/12/13 11:08:44;;;;;;;21.58;14.68;;;;;;;;;;5077249;27;92292;-74
2021/12/13 11:11:19;;;;;;;22.20;14.88;;;;;;;;;;5077492;27;92372;-71
2021/12/13 11:13:48;;;;;;;22.50;15.18;;;;;;;;;;5077549;27;93456;-72
2021/12/13 11:16:25;;;;;;;23.20;14.60;;;;;;;;;;5074519;27;95476;-72
2021/12/13 11:18:52;;;;;;;22.75;14.70;;;;;;;;;;5077502;27;92201;-72
2021/12/13 11:21:24;;;;;;;20.55;13.60;;;;;;;;;;5077162;27;93640;-72
2021/12/13 11:23:52;;;;;;;22.85;14.55;;;;;;;;;;5076944;27;93837;-72
2021/12/13 11:26:21;;;;;;;22.90;14.70;;;;;;;;;;5080315;27;92453;-70
2021/12/13 11:28:48;;;;;;;23.65;13.73;;;;;;;;;;5076547;27;93449;-73
2021/12/13 11:31:24;;;;;;;20.45;14.15;;;;;;;;;;5077166;27;92317;-71
2021/12/13 11:34:04;;;;;;;18.67;13.48;;;;;;;;;;5077526;27;93296;-72
2021/12/13 11:36:44;;;;;;;22.23;14.07;;;;;;;;;;5076468;27;93738;-73
2021/12/13 11:39:24;;;;;;;20.45;14.00;;;;;;;;;;5076601;27;92329;-72
2021/12/13 11:45:34;;;;;;;22.15;13.88;;;;;;;;;;5058186;27;96435;-72
2021/12/13 11:48:01;;;;;;;17.85;13.07;;;;;;;;;;5076661;27;92273;-73
2021/12/13 11:50:55;;;;;;;20.33;13.38;;;;;;;;;;5044176;27;95101;-75
2021/12/13 11:53:40;;;;;;;17.65;12.85;;;;;;;;;;5058608;27;92603;-72
2021/12/13 11:56:25;;;;;;;21.65;12.25;;;;;;;;;;5076619;27;93596;-72
2021/12/13 11:59:06;;;;;;;21.35;13.35;;;;;;;;;;5076743;27;93706;-72
2021/12/13 12:02:00;;;;;;;19.40;12.65;;;;;;;;;;5062532;27;91866;-72
2021/12/13 12:04:45;;;;;;;19.05;12.60;;;;;;;;;;5079848;27;92670;-73
2021/12/13 12:07:31;;;;;;;22.15;12.15;;;;;;;;;;5080097;27;93764;-73
2021/12/13 12:10:17;;;;;;;23.40;12.40;;;;;;;;;;5078147;27;95869;-72
2021/12/13 12:13:02;;;;;;;16.80;12.18;;;;;;;;;;5079667;27;94647;-72
2021/12/13 12:15:29;;;;;;;16.08;12.13;;;;;;;;;;5082848;27;93473;-72
2021/12/13 12:17:59;;;;;;;16.55;11.60;;;;;;;;;;5080102;27;93324;-71
2021/12/13 12:20:27;;;;;;;15.23;11.40;;;;;;;;;;5079961;27;94033;-72
2021/12/13 12:22:56;;;;;;;17.58;11.65;;;;;;;;;;5079800;27;92285;-72
2021/12/13 12:25:25;;;;;;;14.15;10.60;;;;;;;;;;5062171;27;93732;-72
2021/12/13 12:27:54;;;;;;;14.52;10.93;;;;;;;;;;5044938;27;93891;-72
2021/12/13 12:30:22;;;;;;;15.18;10.95;;;;;;;;;;5079866;27;92314;-72
2021/12/13 12:32:54;;;;;;;16.55;10.65;;;;;;;;;;5079632;27;93519;-72
2021/12/13 12:35:25;;;;;;;16.27;10.75;;;;;;;;;;5077167;27;95944;-73
2021/12/13 12:38:02;;;;;;;15.95;10.65;;;;;;;;;;5082204;27;92506;-73
2021/12/13 12:41:06;;;;;;;14.05;10.07;;;;;;;;;;5079246;27;93940;-72
2021/12/13 12:43:36;;;;;;;18.90;11.50;;;;;;;;;;4976660;28;93210;-73
2021/12/13 12:46:06;;;;;;;16.25;10.25;;;;;;;;;;4976046;28;93573;-73
2021/12/13 12:48:35;;;;;;;15.98;11.20;;;;;;;;;;5011765;27;94844;-73
2021/12/13 12:51:09;;;;;;;16.30;10.63;;;;;;;;;;5079185;27;92318;-72
2021/12/13 12:53:50;;;;;;;14.15;10.20;;;;;;;;;;5079600;27;92970;-73
2021/12/13 12:56:25;;;;;;;17.33;10.47;;;;;;;;;;5060898;27;94091;-73
2021/12/13 12:58:57;;;;;;;15.77;10.65;;;;;;;;;;5079083;27;92313;-73
2021/12/13 13:01:26;;;;;;;13.88;10.65;;;;;;;;;;5080893;27;94831;-73
2021/12/13 13:04:04;;;;;;;14.57;11.07;;;;;;;;;;5061516;27;92256;-73
2021/12/13 13:06:30;;;;;;;12.98;10.63;;;;;;;;;;5079228;27;93543;-73
2021/12/13 13:09:07;;;;;;;17.40;10.98;;;;;;;;;;5078083;27;93449;-73
2021/12/13 13:11:35;;;;;;;15.38;10.73;;;;;;;;;;5057779;27;92330;-73
2021/12/13 13:14:12;;;;;;;15.20;10.45;;;;;;;;;;5058873;27;92980;-73
2021/12/13 13:16:45;;;;;;;15.10;10.38;;;;;;;;;;5057212;27;93652;-73
2021/12/13 13:19:30;;;;;;;16.77;10.43;;;;;;;;;;5040544;27;94050;-74
2021/12/13 13:22:02;;;;;;;15.23;10.43;;;;;;;;;;5058617;27;92684;-73
2021/12/13 13:24:55;;;;;;;14.38;10.75;;;;;;;;;;5061397;27;93486;-73
2021/12/13 13:27:24;;;;;;;12.38;10.50;;;;;;;;;;5056824;27;94712;-73
2021/12/13 13:29:51;;;;;;;18.42;10.77;;;;;;;;;;5057557;27;93751;-74
2021/12/13 13:32:17;;;;;;;12.75;10.52;;;;;;;;;;5057227;27;92964;-73
2021/12/13 13:34:48;;;;;;;12.60;10.52;;;;;;;;;;5058306;27;93403;-74
2021/12/13 13:37:16;;;;;;;13.70;10.45;;;;;;;;;;5058107;27;93955;-73
2021/12/13 13:39:45;;;;;;;13.52;10.80;;;;;;;;;;5058170;27;92391;-74
2021/12/13 13:42:18;;;;;;;15.82;10.82;;;;;;;;;;5057787;27;93441;-74
2021/12/13 13:44:47;;;;;;;14.85;10.35;;;;;;;;;;5061822;27;93075;-75
2021/12/13 13:47:16;;;;;;;14.25;10.68;;;;;;;;;;5058139;27;92304;-74
2021/12/13 13:49:43;;;;;;;14.77;10.95;;;;;;;;;;5058081;27;93523;-75
2021/12/13 13:52:16;;;;;;;15.10;10.65;;;;;;;;;;5056453;27;94697;-74
2021/12/13 13:54:43;;;;;;;16.83;11.10;;;;;;;;;;5057600;27;95840;-73
2021/12/13 13:57:18;;;;;;;13.27;11.35;;;;;;;;;;5057872;27;93610;-72
2021/12/13 13:59:46;;;;;;;14.77;10.45;;;;;;;;;;5057913;27;92250;-73
2021/12/13 14:02:14;;;;;;;12.32;10.48;;;;;;;;;;5040103;27;92468;-75
2021/12/13 14:04:43;;;;;;;15.43;11.98;;;;;;;;;;5039625;27;94436;-72
2021/12/13 14:07:13;;;;;;;14.25;11.02;;;;;;;;;;5060700;27;92330;-72
2021/12/13 14:09:41;;;;;;;16.55;10.88;;;;;;;;;;5057779;27;92912;-72
2021/12/13 14:12:28;;;;;;;17.27;10.85;;;;;;;;;;5057809;27;92249;-72
2021/12/13 14:14:58;;;;;;;16.58;11.30;;;;;;;;;;5043702;27;93426;-72
2021/12/13 14:17:30;;;;;;;14.00;10.73;;;;;;;;;;5055794;27;96059;-72
2021/12/13 14:20:01;;;;;;;13.25;10.93;;;;;;;;;;5057249;27;92296;-73
2021/12/13 14:22:30;;;;;;;17.58;11.25;;;;;;;;;;5057369;27;92971;-73
2021/12/13 14:24:56;;;;;;;14.20;10.90;;;;;;;;;;5039751;27;94155;-73
2021/12/13 14:27:25;;;;;;;12.25;10.48;;;;;;;;;;5057463;27;92297;-73
2021/12/13 14:29:53;;;;;;;13.98;10.25;;;;;;;;;;5060481;27;93570;-73
2021/12/13 14:32:20;;;;;;;14.73;10.45;;;;;;;;;;5046425;27;93657;-73
2021/12/13 14:34:46;;;;;;;14.57;10.45;;;;;;;;;;5068357;27;93282;-74
2021/12/13 14:37:13;;;;;;;12.13;10.45;;;;;;;;;;5066427;27;93519;-74
2021/12/13 14:39:43;;;;;;;17.25;10.15;;;;;;;;;;5048968;27;92387;-73
2021/12/13 14:42:11;;;;;;;16.13;10.70;;;;;;;;;;5066480;27;94642;-73
2021/12/13 14:44:41;;;;;;;15.85;10.27;;;;;;;;;;5067239;27;93753;-73
2021/12/13 14:47:10;;;;;;;11.18;9.98;;;;;;;;;;5044665;27;92471;-72
2021/12/13 14:49:41;;;;;;;13.73;10.35;;;;;;;;;;5064245;27;92840;-72
2021/12/13 14:52:09;;;;;;;13.80;10.23;;;;;;;;;;5060039;27;93200;-72
2021/12/13 14:54:37;;;;;;;13.32;9.80;;;;;;;;;;5056963;27;93444;-72
2021/12/13 14:57:06;;;;;;;13.82;10.45;;;;;;;;;;5039373;27;96077;-71